sensor_id;sensor_type;location;lat;lon;timestamp;temperature;humidity
44069;DHT22;29738;51.234;5.484;2024-03-02T00:00:02;9.60;1.00
44069;DHT22;29738;51.234;5.484;2024-03-02T00:02:43;9.50;1.00
44069;DHT22;29738;51.234;5.484;2024-03-02T00:05:14;9.50;1.00
44069;DHT22;29738;51.234;5.484;2024-03-02T00:07:42;9.60;1.00
44069;DHT22;29738;51.234;5.484;2024-03-02T00:10:09;9.50;1.00
44069;DHT22;29738;51.234;5.484;2024-03-02T00:12:39;9.40;22.30
44069;DHT22;29738;51.234;5.484;2024-03-02T00:17:53;8.70;99.90
44069;DHT22;29738;51.234;5.484;2024-03-02T00:20:24;8.20;99.90
44069;DHT22;29738;51.234;5.484;2024-03-02T00:22:55;7.80;99.90
44069;DHT22;29738;51.234;5.484;2024-03-02T00:25:25;7.60;99.90
44069;DHT22;29738;51.234;5.484;2024-03-02T00:27:51;7.50;99.90
44069;DHT22;29738;51.234;5.484;2024-03-02T00:33:08;7.30;99.90
44069;DHT22;29738;51.234;5.484;2024-03-02T00:35:33;7.40;99.90
44069;DHT22;29738;51.234;5.484;2024-03-02T00:38:06;7.40;99.90
44069;DHT22;29738;51.234;5.484;2024-03-02T00:40:32;7.30;99.90
44069;DHT22;29738;51.234;5.484;2024-03-02T00:42:58;7.30;99.90
44069;DHT22;29738;51.234;5.484;2024-03-02T00:45:26;7.40;99.90
44069;DHT22;29738;51.234;5.484;2024-03-02T00:47:52;7.40;99.90
44069;DHT22;29738;51.234;5.484;2024-03-02T00:50:18;7.40;99.90
44069;DHT22;29738;51.234;5.484;2024-03-02T00:52:45;7.40;99.90
44069;DHT22;29738;51.234;5.484;2024-03-02T00:55:12;7.40;99.90
44069;DHT22;29738;51.234;5.484;2024-03-02T00:57:38;7.30;99.90
44069;DHT22;29738;51.234;5.484;2024-03-02T01:00:04;7.30;99.90
44069;DHT22;29738;51.234;5.484;2024-03-02T01:02:34;7.30;99.90
44069;DHT22;29738;51.234;5.484;2024-03-02T01:04:59;7.30;99.90
44069;DHT22;29738;51.234;5.484;2024-03-02T01:07:25;7.40;99.90
44069;DHT22;29738;51.234;5.484;2024-03-02T01:09:50;7.30;99.90
44069;DHT22;29738;51.234;5.484;2024-03-02T01:12:16;7.40;99.90
44069;DHT22;29738;51.234;5.484;2024-03-02T01:14:42;7.40;99.90
44069;DHT22;29738;51.234;5.484;2024-03-02T01:17:08;7.40;99.90
44069;DHT22;29738;51.234;5.484;2024-03-02T01:19:33;7.30;99.90
44069;DHT22;29738;51.234;5.484;2024-03-02T01:22:30;7.30;99.90
44069;DHT22;29738;51.234;5.484;2024-03-02T01:24:56;7.40;99.90
44069;DHT22;29738;51.234;5.484;2024-03-02T01:27:21;7.40;99.90
44069;DHT22;29738;51.234;5.484;2024-03-02T01:29:47;7.40;99.90
44069;DHT22;29738;51.234;5.484;2024-03-02T01:32:13;7.40;99.90
44069;DHT22;29738;51.234;5.484;2024-03-02T02:10:01;7.30;99.90
44069;DHT22;29738;51.234;5.484;2024-03-02T02:12:27;7.30;99.90
44069;DHT22;29738;51.234;5.484;2024-03-02T02:14:53;7.30;99.90
44069;DHT22;29738;51.234;5.484;2024-03-02T02:17:19;7.30;99.90
44069;DHT22;29738;51.234;5.484;2024-03-02T02:19:45;7.30;99.90
44069;DHT22;29738;51.234;5.484;2024-03-02T02:22:11;7.20;99.90
44069;DHT22;29738;51.234;5.484;2024-03-02T02:24:42;7.30;99.90
44069;DHT22;29738;51.234;5.484;2024-03-02T02:27:08;7.30;99.90
44069;DHT22;29738;51.234;5.484;2024-03-02T02:29:35;7.30;99.90
44069;DHT22;29738;51.234;5.484;2024-03-02T02:32:01;7.30;99.90
44069;DHT22;29738;51.234;5.484;2024-03-02T02:34:27;7.30;99.90
44069;DHT22;29738;51.234;5.484;2024-03-02T02:36:53;7.20;99.90
44069;DHT22;29738;51.234;5.484;2024-03-02T02:39:21;7.30;99.90
44069;DHT22;29738;51.234;5.484;2024-03-02T02:41:48;7.30;99.90
44069;DHT22;29738;51.234;5.484;2024-03-02T02:44:13;7.20;99.90
44069;DHT22;29738;51.234;5.484;2024-03-02T02:46:40;7.20;99.90
44069;DHT22;29738;51.234;5.484;2024-03-02T02:49:06;7.20;99.90
44069;DHT22;29738;51.234;5.484;2024-03-02T02:51:34;7.20;99.90
44069;DHT22;29738;51.234;5.484;2024-03-02T02:54:00;7.30;99.90
44069;DHT22;29738;51.234;5.484;2024-03-02T02:56:26;7.20;99.90
44069;DHT22;29738;51.234;5.484;2024-03-02T02:58:51;7.20;99.90
44069;DHT22;29738;51.234;5.484;2024-03-02T03:01:17;7.20;99.90
44069;DHT22;29738;51.234;5.484;2024-03-02T03:03:46;7.20;99.90
44069;DHT22;29738;51.234;5.484;2024-03-02T03:06:12;7.20;99.90
44069;DHT22;29738;51.234;5.484;2024-03-02T03:08:38;7.20;99.90
44069;DHT22;29738;51.234;5.484;2024-03-02T03:11:04;7.10;99.90
44069;DHT22;29738;51.234;5.484;2024-03-02T03:13:31;7.20;99.90
44069;DHT22;29738;51.234;5.484;2024-03-02T03:15:57;7.20;99.90
44069;DHT22;29738;51.234;5.484;2024-03-02T03:18:23;7.20;99.90
44069;DHT22;29738;51.234;5.484;2024-03-02T03:20:48;7.20;99.90
44069;DHT22;29738;51.234;5.484;2024-03-02T03:23:15;7.20;99.90
44069;DHT22;29738;51.234;5.484;2024-03-02T03:25:43;7.20;99.90
44069;DHT22;29738;51.234;5.484;2024-03-02T03:28:09;7.20;99.90
44069;DHT22;29738;51.234;5.484;2024-03-02T03:30:38;7.20;99.90
44069;DHT22;29738;51.234;5.484;2024-03-02T03:33:04;7.20;99.90
44069;DHT22;29738;51.234;5.484;2024-03-02T03:35:33;7.10;99.90
44069;DHT22;29738;51.234;5.484;2024-03-02T03:37:58;7.20;99.90
44069;DHT22;29738;51.234;5.484;2024-03-02T03:40:24;7.20;99.90
44069;DHT22;29738;51.234;5.484;2024-03-02T03:42:50;7.10;99.90
44069;DHT22;29738;51.234;5.484;2024-03-02T03:45:16;7.10;99.90
44069;DHT22;29738;51.234;5.484;2024-03-02T03:47:45;7.10;99.90
44069;DHT22;29738;51.234;5.484;2024-03-02T03:50:10;7.10;99.90
44069;DHT22;29738;51.234;5.484;2024-03-02T03:52:36;7.10;99.90
44069;DHT22;29738;51.234;5.484;2024-03-02T03:55:02;7.10;99.90
44069;DHT22;29738;51.234;5.484;2024-03-02T03:57:27;7.00;99.90
44069;DHT22;29738;51.234;5.484;2024-03-02T03:59:53;7.00;99.90
44069;DHT22;29738;51.234;5.484;2024-03-02T04:02:19;7.00;99.90
44069;DHT22;29738;51.234;5.484;2024-03-02T04:04:45;7.00;99.90
44069;DHT22;29738;51.234;5.484;2024-03-02T04:07:11;7.00;99.90
44069;DHT22;29738;51.234;5.484;2024-03-02T04:09:37;6.90;99.90
44069;DHT22;29738;51.234;5.484;2024-03-02T04:12:03;6.90;99.90
44069;DHT22;29738;51.234;5.484;2024-03-02T04:14:29;6.90;99.90
44069;DHT22;29738;51.234;5.484;2024-03-02T04:16:54;7.00;99.90
44069;DHT22;29738;51.234;5.484;2024-03-02T04:19:20;6.90;99.90
44069;DHT22;29738;51.234;5.484;2024-03-02T04:21:45;7.00;99.90
44069;DHT22;29738;51.234;5.484;2024-03-02T04:24:11;7.00;99.90
44069;DHT22;29738;51.234;5.484;2024-03-02T04:26:37;7.00;99.90
44069;DHT22;29738;51.234;5.484;2024-03-02T04:29:02;7.00;99.90
44069;DHT22;29738;51.234;5.484;2024-03-02T04:31:28;7.00;99.90
44069;DHT22;29738;51.234;5.484;2024-03-02T04:33:54;7.00;99.90
44069;DHT22;29738;51.234;5.484;2024-03-02T04:36:20;7.00;99.90
44069;DHT22;29738;51.234;5.484;2024-03-02T04:38:46;7.00;99.90
44069;DHT22;29738;51.234;5.484;2024-03-02T04:41:12;7.10;99.90
44069;DHT22;29738;51.234;5.484;2024-03-02T04:43:37;7.00;99.90
44069;DHT22;29738;51.234;5.484;2024-03-02T04:46:04;7.00;99.90
44069;DHT22;29738;51.234;5.484;2024-03-02T04:48:31;6.90;99.90
44069;DHT22;29738;51.234;5.484;2024-03-02T04:50:57;7.10;99.90
44069;DHT22;29738;51.234;5.484;2024-03-02T04:53:23;7.00;99.90
44069;DHT22;29738;51.234;5.484;2024-03-02T04:55:48;6.90;99.90
44069;DHT22;29738;51.234;5.484;2024-03-02T04:58:49;6.90;99.90
44069;DHT22;29738;51.234;5.484;2024-03-02T05:01:14;6.70;99.90
44069;DHT22;29738;51.234;5.484;2024-03-02T05:03:42;6.80;99.90
44069;DHT22;29738;51.234;5.484;2024-03-02T05:06:08;6.80;99.90
44069;DHT22;29738;51.234;5.484;2024-03-02T05:08:34;6.70;99.90
44069;DHT22;29738;51.234;5.484;2024-03-02T05:10:59;6.80;99.90
44069;DHT22;29738;51.234;5.484;2024-03-02T05:13:45;6.90;99.90
44069;DHT22;29738;51.234;5.484;2024-03-02T05:16:11;6.90;99.90
44069;DHT22;29738;51.234;5.484;2024-03-02T05:18:37;6.90;99.90
44069;DHT22;29738;51.234;5.484;2024-03-02T05:21:03;7.00;99.90
44069;DHT22;29738;51.234;5.484;2024-03-02T05:23:29;6.90;99.90
44069;DHT22;29738;51.234;5.484;2024-03-02T05:25:55;6.80;99.90
44069;DHT22;29738;51.234;5.484;2024-03-02T05:28:20;6.90;99.90
44069;DHT22;29738;51.234;5.484;2024-03-02T05:30:46;6.90;99.90
44069;DHT22;29738;51.234;5.484;2024-03-02T05:33:12;6.90;99.90
44069;DHT22;29738;51.234;5.484;2024-03-02T05:35:38;6.90;99.90
44069;DHT22;29738;51.234;5.484;2024-03-02T05:38:04;6.90;99.90
44069;DHT22;29738;51.234;5.484;2024-03-02T05:40:29;6.90;99.90
44069;DHT22;29738;51.234;5.484;2024-03-02T05:42:55;6.80;99.90
44069;DHT22;29738;51.234;5.484;2024-03-02T05:45:21;6.80;99.90
44069;DHT22;29738;51.234;5.484;2024-03-02T05:47:46;6.80;99.90
44069;DHT22;29738;51.234;5.484;2024-03-02T05:50:12;6.70;99.90
44069;DHT22;29738;51.234;5.484;2024-03-02T05:52:38;6.70;99.90
44069;DHT22;29738;51.234;5.484;2024-03-02T05:55:04;6.70;99.90
44069;DHT22;29738;51.234;5.484;2024-03-02T05:57:30;6.60;99.90
44069;DHT22;29738;51.234;5.484;2024-03-02T06:00:05;6.60;99.90
44069;DHT22;29738;51.234;5.484;2024-03-02T06:02:33;6.60;99.90
44069;DHT22;29738;51.234;5.484;2024-03-02T06:05:00;6.60;99.90
44069;DHT22;29738;51.234;5.484;2024-03-02T06:07:26;6.50;99.90
44069;DHT22;29738;51.234;5.484;2024-03-02T06:09:51;6.60;99.90
44069;DHT22;29738;51.234;5.484;2024-03-02T06:12:18;6.50;99.90
44069;DHT22;29738;51.234;5.484;2024-03-02T06:14:44;6.50;99.90
44069;DHT22;29738;51.234;5.484;2024-03-02T06:17:10;6.50;99.90
44069;DHT22;29738;51.234;5.484;2024-03-02T06:19:35;6.50;99.90
44069;DHT22;29738;51.234;5.484;2024-03-02T06:22:01;6.30;99.90
44069;DHT22;29738;51.234;5.484;2024-03-02T06:24:27;6.40;99.90
44069;DHT22;29738;51.234;5.484;2024-03-02T06:26:52;6.50;99.90
44069;DHT22;29738;51.234;5.484;2024-03-02T06:29:18;6.50;99.90
44069;DHT22;29738;51.234;5.484;2024-03-02T06:31:44;6.50;99.90
44069;DHT22;29738;51.234;5.484;2024-03-02T06:34:09;6.60;99.90
44069;DHT22;29738;51.234;5.484;2024-03-02T06:36:35;6.50;99.90
44069;DHT22;29738;51.234;5.484;2024-03-02T06:39:01;6.60;99.90
44069;DHT22;29738;51.234;5.484;2024-03-02T06:41:26;6.70;99.90
44069;DHT22;29738;51.234;5.484;2024-03-02T06:43:52;6.80;99.90
44069;DHT22;29738;51.234;5.484;2024-03-02T06:46:25;6.80;99.90
44069;DHT22;29738;51.234;5.484;2024-03-02T06:48:50;6.70;99.90
44069;DHT22;29738;51.234;5.484;2024-03-02T06:51:16;6.70;99.90
44069;DHT22;29738;51.234;5.484;2024-03-02T06:53:42;6.60;99.90
44069;DHT22;29738;51.234;5.484;2024-03-02T06:56:07;6.60;99.90
44069;DHT22;29738;51.234;5.484;2024-03-02T06:58:33;6.50;99.90
44069;DHT22;29738;51.234;5.484;2024-03-02T07:00:59;6.50;99.90
44069;DHT22;29738;51.234;5.484;2024-03-02T07:03:26;6.60;99.90
44069;DHT22;29738;51.234;5.484;2024-03-02T07:05:51;6.80;99.90
44069;DHT22;29738;51.234;5.484;2024-03-02T07:08:17;7.00;99.90
44069;DHT22;29738;51.234;5.484;2024-03-02T07:10:42;6.90;99.90
44069;DHT22;29738;51.234;5.484;2024-03-02T07:13:08;6.80;99.90
44069;DHT22;29738;51.234;5.484;2024-03-02T07:15:34;6.80;99.90
44069;DHT22;29738;51.234;5.484;2024-03-02T07:18:03;7.00;99.90
44069;DHT22;29738;51.234;5.484;2024-03-02T07:20:29;7.00;99.90
44069;DHT22;29738;51.234;5.484;2024-03-02T07:22:55;7.00;99.90
44069;DHT22;29738;51.234;5.484;2024-03-02T07:25:21;7.00;99.90
44069;DHT22;29738;51.234;5.484;2024-03-02T07:27:46;7.00;99.90
44069;DHT22;29738;51.234;5.484;2024-03-02T07:30:15;7.00;99.90
44069;DHT22;29738;51.234;5.484;2024-03-02T07:32:43;7.00;99.90
44069;DHT22;29738;51.234;5.484;2024-03-02T07:35:14;7.00;99.90
44069;DHT22;29738;51.234;5.484;2024-03-02T07:37:41;7.00;99.90
44069;DHT22;29738;51.234;5.484;2024-03-02T07:40:08;7.00;99.90
44069;DHT22;29738;51.234;5.484;2024-03-02T07:42:40;7.00;99.90
44069;DHT22;29738;51.234;5.484;2024-03-02T07:45:06;7.00;99.90
44069;DHT22;29738;51.234;5.484;2024-03-02T07:47:34;7.10;99.90
44069;DHT22;29738;51.234;5.484;2024-03-02T07:50:00;7.00;99.90
44069;DHT22;29738;51.234;5.484;2024-03-02T07:52:26;7.00;99.90
44069;DHT22;29738;51.234;5.484;2024-03-02T07:54:51;7.10;99.90
44069;DHT22;29738;51.234;5.484;2024-03-02T07:57:17;7.10;99.90
44069;DHT22;29738;51.234;5.484;2024-03-02T07:59:44;7.00;99.90
44069;DHT22;29738;51.234;5.484;2024-03-02T08:02:10;7.00;99.90
44069;DHT22;29738;51.234;5.484;2024-03-02T08:04:35;7.30;99.90
44069;DHT22;29738;51.234;5.484;2024-03-02T08:07:02;7.50;99.90
44069;DHT22;29738;51.234;5.484;2024-03-02T08:09:28;7.40;99.00
44069;DHT22;29738;51.234;5.484;2024-03-02T08:11:54;7.50;99.30
44069;DHT22;29738;51.234;5.484;2024-03-02T08:14:19;7.50;99.40
44069;DHT22;29738;51.234;5.484;2024-03-02T08:16:45;7.60;99.00
44069;DHT22;29738;51.234;5.484;2024-03-02T08:19:11;7.70;98.10
44069;DHT22;29738;51.234;5.484;2024-03-02T08:21:37;7.70;98.90
44069;DHT22;29738;51.234;5.484;2024-03-02T08:24:03;7.90;98.40
44069;DHT22;29738;51.234;5.484;2024-03-02T08:26:28;7.90;97.90
44069;DHT22;29738;51.234;5.484;2024-03-02T08:28:55;7.90;98.10
44069;DHT22;29738;51.234;5.484;2024-03-02T08:31:21;8.00;99.90
44069;DHT22;29738;51.234;5.484;2024-03-02T08:33:46;8.00;97.50
44069;DHT22;29738;51.234;5.484;2024-03-02T08:36:15;8.10;98.10
44069;DHT22;29738;51.234;5.484;2024-03-02T08:38:41;8.20;99.90
44069;DHT22;29738;51.234;5.484;2024-03-02T08:41:07;8.10;99.90
44069;DHT22;29738;51.234;5.484;2024-03-02T08:43:33;8.20;99.90
44069;DHT22;29738;51.234;5.484;2024-03-02T08:45:59;8.20;99.90
44069;DHT22;29738;51.234;5.484;2024-03-02T08:48:24;8.40;99.90
44069;DHT22;29738;51.234;5.484;2024-03-02T08:50:50;8.40;99.90
44069;DHT22;29738;51.234;5.484;2024-03-02T08:53:16;8.50;99.90
44069;DHT22;29738;51.234;5.484;2024-03-02T08:55:46;8.50;99.90
44069;DHT22;29738;51.234;5.484;2024-03-02T08:58:12;8.60;99.90
44069;DHT22;29738;51.234;5.484;2024-03-02T09:00:37;8.60;99.90
44069;DHT22;29738;51.234;5.484;2024-03-02T09:03:03;8.70;99.90
44069;DHT22;29738;51.234;5.484;2024-03-02T09:05:29;8.70;99.90
44069;DHT22;29738;51.234;5.484;2024-03-02T09:07:55;8.70;99.90
44069;DHT22;29738;51.234;5.484;2024-03-02T09:10:21;8.70;99.90
44069;DHT22;29738;51.234;5.484;2024-03-02T09:12:47;8.80;99.90
44069;DHT22;29738;51.234;5.484;2024-03-02T09:15:15;8.80;99.90
44069;DHT22;29738;51.234;5.484;2024-03-02T09:17:41;8.80;99.90
44069;DHT22;29738;51.234;5.484;2024-03-02T09:20:07;8.90;99.90
44069;DHT22;29738;51.234;5.484;2024-03-02T09:22:33;9.00;99.90
44069;DHT22;29738;51.234;5.484;2024-03-02T09:24:58;9.10;99.90
44069;DHT22;29738;51.234;5.484;2024-03-02T09:27:24;9.20;99.90
44069;DHT22;29738;51.234;5.484;2024-03-02T09:29:50;9.20;99.90
44069;DHT22;29738;51.234;5.484;2024-03-02T09:32:16;9.20;99.90
44069;DHT22;29738;51.234;5.484;2024-03-02T09:34:42;9.20;99.90
44069;DHT22;29738;51.234;5.484;2024-03-02T09:37:10;9.40;99.90
44069;DHT22;29738;51.234;5.484;2024-03-02T09:39:36;9.50;99.90
44069;DHT22;29738;51.234;5.484;2024-03-02T09:42:03;9.50;99.90
44069;DHT22;29738;51.234;5.484;2024-03-02T09:44:30;9.60;99.90
44069;DHT22;29738;51.234;5.484;2024-03-02T09:46:55;9.70;99.90
44069;DHT22;29738;51.234;5.484;2024-03-02T09:49:22;9.70;99.90
44069;DHT22;29738;51.234;5.484;2024-03-02T09:51:48;9.80;99.90
44069;DHT22;29738;51.234;5.484;2024-03-02T09:54:15;9.80;99.90
44069;DHT22;29738;51.234;5.484;2024-03-02T09:56:41;9.90;99.90
44069;DHT22;29738;51.234;5.484;2024-03-02T09:59:07;10.10;99.90
44069;DHT22;29738;51.234;5.484;2024-03-02T10:01:33;10.10;99.90
44069;DHT22;29738;51.234;5.484;2024-03-02T10:03:59;10.10;99.90
44069;DHT22;29738;51.234;5.484;2024-03-02T10:06:27;10.20;99.90
44069;DHT22;29738;51.234;5.484;2024-03-02T10:08:54;10.00;99.90
44069;DHT22;29738;51.234;5.484;2024-03-02T10:11:33;10.10;99.90
44069;DHT22;29738;51.234;5.484;2024-03-02T10:14:06;10.20;99.90
44069;DHT22;29738;51.234;5.484;2024-03-02T10:16:43;10.30;99.90
44069;DHT22;29738;51.234;5.484;2024-03-02T10:19:19;10.50;99.90
44069;DHT22;29738;51.234;5.484;2024-03-02T10:21:52;10.50;99.90
44069;DHT22;29738;51.234;5.484;2024-03-02T10:24:19;10.70;99.90
44069;DHT22;29738;51.234;5.484;2024-03-02T10:26:45;10.60;99.90
44069;DHT22;29738;51.234;5.484;2024-03-02T10:29:12;10.70;99.90
44069;DHT22;29738;51.234;5.484;2024-03-02T10:31:39;10.90;99.90
44069;DHT22;29738;51.234;5.484;2024-03-02T10:34:06;10.90;99.90
44069;DHT22;29738;51.234;5.484;2024-03-02T10:36:36;10.80;99.90
44069;DHT22;29738;51.234;5.484;2024-03-02T10:39:06;10.70;99.90
44069;DHT22;29738;51.234;5.484;2024-03-02T10:41:34;10.70;99.90
44069;DHT22;29738;51.234;5.484;2024-03-02T10:44:04;10.60;99.90
44069;DHT22;29738;51.234;5.484;2024-03-02T10:46:32;10.70;99.90
44069;DHT22;29738;51.234;5.484;2024-03-02T10:48:59;10.90;99.90
44069;DHT22;29738;51.234;5.484;2024-03-02T10:51:26;11.00;99.90
44069;DHT22;29738;51.234;5.484;2024-03-02T10:53:54;10.90;99.90
44069;DHT22;29738;51.234;5.484;2024-03-02T10:59:27;10.90;99.90
44069;DHT22;29738;51.234;5.484;2024-03-02T11:01:58;11.00;99.90
44069;DHT22;29738;51.234;5.484;2024-03-02T11:04:29;10.90;99.90
44069;DHT22;29738;51.234;5.484;2024-03-02T11:07:03;11.00;99.90
44069;DHT22;29738;51.234;5.484;2024-03-02T11:09:30;11.10;99.90
44069;DHT22;29738;51.234;5.484;2024-03-02T11:14:55;11.10;99.90
44069;DHT22;29738;51.234;5.484;2024-03-02T11:17:21;11.30;99.90
44069;DHT22;29738;51.234;5.484;2024-03-02T11:19:48;11.60;99.90
44069;DHT22;29738;51.234;5.484;2024-03-02T11:22:15;11.80;99.90
44069;DHT22;29738;51.234;5.484;2024-03-02T11:24:51;12.00;99.90
44069;DHT22;29738;51.234;5.484;2024-03-02T11:33:07;12.10;99.90
44069;DHT22;29738;51.234;5.484;2024-03-02T11:35:37;12.40;99.90
44069;DHT22;29738;51.234;5.484;2024-03-02T11:38:06;12.50;99.90
44069;DHT22;29738;51.234;5.484;2024-03-02T11:40:32;12.60;99.90
44069;DHT22;29738;51.234;5.484;2024-03-02T11:43:01;12.60;99.90
44069;DHT22;29738;51.234;5.484;2024-03-02T11:45:27;12.90;99.90
44069;DHT22;29738;51.234;5.484;2024-03-02T11:47:57;12.80;99.90
44069;DHT22;29738;51.234;5.484;2024-03-02T11:50:51;12.90;99.90
44069;DHT22;29738;51.234;5.484;2024-03-02T11:53:19;13.10;99.90
44069;DHT22;29738;51.234;5.484;2024-03-02T11:55:45;13.40;99.90
44069;DHT22;29738;51.234;5.484;2024-03-02T11:58:12;13.00;99.90
44069;DHT22;29738;51.234;5.484;2024-03-02T12:00:38;13.10;99.90
44069;DHT22;29738;51.234;5.484;2024-03-02T12:03:06;13.50;99.90
44069;DHT22;29738;51.234;5.484;2024-03-02T12:05:33;13.80;99.90
44069;DHT22;29738;51.234;5.484;2024-03-02T12:08:00;13.70;99.90
44069;DHT22;29738;51.234;5.484;2024-03-02T12:10:26;13.50;99.90
44069;DHT22;29738;51.234;5.484;2024-03-02T12:13:01;13.10;99.90
44069;DHT22;29738;51.234;5.484;2024-03-02T12:15:29;12.80;99.90
44069;DHT22;29738;51.234;5.484;2024-03-02T12:17:56;13.10;99.90
44069;DHT22;29738;51.234;5.484;2024-03-02T12:20:23;13.60;99.90
44069;DHT22;29738;51.234;5.484;2024-03-02T12:22:51;13.60;99.90
44069;DHT22;29738;51.234;5.484;2024-03-02T12:25:22;14.00;99.90
44069;DHT22;29738;51.234;5.484;2024-03-02T12:27:52;14.10;99.90
44069;DHT22;29738;51.234;5.484;2024-03-02T12:30:19;14.10;99.90
44069;DHT22;29738;51.234;5.484;2024-03-02T12:32:45;13.90;99.90
44069;DHT22;29738;51.234;5.484;2024-03-02T12:35:12;14.20;99.90
44069;DHT22;29738;51.234;5.484;2024-03-02T12:37:50;14.30;99.90
44069;DHT22;29738;51.234;5.484;2024-03-02T12:40:17;14.30;99.90
44069;DHT22;29738;51.234;5.484;2024-03-02T12:42:45;14.60;99.90
44069;DHT22;29738;51.234;5.484;2024-03-02T12:45:12;14.10;99.90
44069;DHT22;29738;51.234;5.484;2024-03-02T12:47:40;13.60;99.90
44069;DHT22;29738;51.234;5.484;2024-03-02T12:50:07;13.70;99.90
44069;DHT22;29738;51.234;5.484;2024-03-02T12:52:33;14.20;99.90
44069;DHT22;29738;51.234;5.484;2024-03-02T12:55:04;14.60;99.90
44069;DHT22;29738;51.234;5.484;2024-03-02T12:57:32;15.00;99.90
44069;DHT22;29738;51.234;5.484;2024-03-02T13:00:05;14.70;99.90
44069;DHT22;29738;51.234;5.484;2024-03-02T13:02:40;15.00;99.90
44069;DHT22;29738;51.234;5.484;2024-03-02T13:05:07;15.60;99.90
44069;DHT22;29738;51.234;5.484;2024-03-02T13:07:40;15.60;99.90
44069;DHT22;29738;51.234;5.484;2024-03-02T13:10:10;15.70;99.90
44069;DHT22;29738;51.234;5.484;2024-03-02T13:12:36;15.80;99.90
44069;DHT22;29738;51.234;5.484;2024-03-02T13:15:03;15.60;99.90
44069;DHT22;29738;51.234;5.484;2024-03-02T13:17:29;16.20;99.90
44069;DHT22;29738;51.234;5.484;2024-03-02T13:19:56;16.40;99.90
44069;DHT22;29738;51.234;5.484;2024-03-02T13:22:25;16.40;99.60
44069;DHT22;29738;51.234;5.484;2024-03-02T13:24:53;15.60;99.80
44069;DHT22;29738;51.234;5.484;2024-03-02T13:27:20;14.80;99.90
44069;DHT22;29738;51.234;5.484;2024-03-02T13:29:46;14.60;99.90
44069;DHT22;29738;51.234;5.484;2024-03-02T13:32:15;14.20;99.90
44069;DHT22;29738;51.234;5.484;2024-03-02T13:34:41;14.60;99.90
44069;DHT22;29738;51.234;5.484;2024-03-02T13:37:07;15.00;99.90
44069;DHT22;29738;51.234;5.484;2024-03-02T13:39:33;15.60;99.90
44069;DHT22;29738;51.234;5.484;2024-03-02T13:42:11;16.10;99.50
44069;DHT22;29738;51.234;5.484;2024-03-02T13:44:39;16.80;99.90
44069;DHT22;29738;51.234;5.484;2024-03-02T13:47:05;17.50;99.30
44069;DHT22;29738;51.234;5.484;2024-03-02T13:49:31;17.80;98.40
44069;DHT22;29738;51.234;5.484;2024-03-02T13:52:03;17.40;97.70
44069;DHT22;29738;51.234;5.484;2024-03-02T13:54:37;17.80;96.90
44069;DHT22;29738;51.234;5.484;2024-03-02T13:57:03;16.50;97.40
44069;DHT22;29738;51.234;5.484;2024-03-02T13:59:29;16.60;97.40
44069;DHT22;29738;51.234;5.484;2024-03-02T14:01:55;17.00;97.00
44069;DHT22;29738;51.234;5.484;2024-03-02T14:04:20;17.30;96.20
44069;DHT22;29738;51.234;5.484;2024-03-02T14:06:46;16.30;97.20
44069;DHT22;29738;51.234;5.484;2024-03-02T14:09:12;15.80;98.70
44069;DHT22;29738;51.234;5.484;2024-03-02T14:11:37;15.50;98.80
44069;DHT22;29738;51.234;5.484;2024-03-02T14:14:03;15.20;98.80
44069;DHT22;29738;51.234;5.484;2024-03-02T14:16:29;15.00;99.30
44069;DHT22;29738;51.234;5.484;2024-03-02T14:18:54;14.60;99.50
44069;DHT22;29738;51.234;5.484;2024-03-02T14:21:20;14.50;99.80
44069;DHT22;29738;51.234;5.484;2024-03-02T14:23:46;14.50;99.90
44069;DHT22;29738;51.234;5.484;2024-03-02T14:26:11;14.60;99.90
44069;DHT22;29738;51.234;5.484;2024-03-02T14:28:37;15.00;99.80
44069;DHT22;29738;51.234;5.484;2024-03-02T14:31:03;14.90;99.60
44069;DHT22;29738;51.234;5.484;2024-03-02T14:33:29;14.70;99.90
44069;DHT22;29738;51.234;5.484;2024-03-02T14:35:54;14.80;99.60
44069;DHT22;29738;51.234;5.484;2024-03-02T14:38:20;15.10;99.90
44069;DHT22;29738;51.234;5.484;2024-03-02T14:40:46;15.10;99.10
44069;DHT22;29738;51.234;5.484;2024-03-02T14:43:12;15.90;99.10
44069;DHT22;29738;51.234;5.484;2024-03-02T14:45:38;16.60;98.00
44069;DHT22;29738;51.234;5.484;2024-03-02T14:48:05;15.80;98.00
44069;DHT22;29738;51.234;5.484;2024-03-02T14:50:31;15.10;99.20
44069;DHT22;29738;51.234;5.484;2024-03-02T14:52:57;14.40;99.60
44069;DHT22;29738;51.234;5.484;2024-03-02T14:55:23;14.00;99.40
44069;DHT22;29738;51.234;5.484;2024-03-02T14:57:49;13.80;93.60
44069;DHT22;29738;51.234;5.484;2024-03-02T15:00:15;13.90;84.60
44069;DHT22;29738;51.234;5.484;2024-03-02T15:02:41;14.10;82.20
44069;DHT22;29738;51.234;5.484;2024-03-02T15:05:07;14.20;83.50
44069;DHT22;29738;51.234;5.484;2024-03-02T15:07:33;14.50;81.20
44069;DHT22;29738;51.234;5.484;2024-03-02T15:09:59;14.60;80.50
44069;DHT22;29738;51.234;5.484;2024-03-02T15:12:24;15.00;76.80
44069;DHT22;29738;51.234;5.484;2024-03-02T15:14:50;15.00;75.20
44069;DHT22;29738;51.234;5.484;2024-03-02T15:17:16;14.60;78.50
44069;DHT22;29738;51.234;5.484;2024-03-02T15:19:46;14.80;78.30
44069;DHT22;29738;51.234;5.484;2024-03-02T15:22:12;14.80;77.90
44069;DHT22;29738;51.234;5.484;2024-03-02T15:24:38;15.10;76.50
44069;DHT22;29738;51.234;5.484;2024-03-02T15:27:05;14.90;75.70
44069;DHT22;29738;51.234;5.484;2024-03-02T15:29:32;14.70;77.50
44069;DHT22;29738;51.234;5.484;2024-03-02T15:31:58;14.60;76.90
44069;DHT22;29738;51.234;5.484;2024-03-02T15:34:24;14.30;76.20
44069;DHT22;29738;51.234;5.484;2024-03-02T15:36:50;14.20;77.40
44069;DHT22;29738;51.234;5.484;2024-03-02T15:39:16;14.20;78.00
44069;DHT22;29738;51.234;5.484;2024-03-02T15:41:44;14.00;78.40
44069;DHT22;29738;51.234;5.484;2024-03-02T15:44:10;14.10;75.90
44069;DHT22;29738;51.234;5.484;2024-03-02T15:46:36;13.90;75.10
44069;DHT22;29738;51.234;5.484;2024-03-02T15:49:01;13.90;76.10
44069;DHT22;29738;51.234;5.484;2024-03-02T15:51:28;13.70;72.70
44069;DHT22;29738;51.234;5.484;2024-03-02T15:53:54;13.70;70.70
44069;DHT22;29738;51.234;5.484;2024-03-02T15:56:25;13.70;71.50
44069;DHT22;29738;51.234;5.484;2024-03-02T15:58:51;13.60;70.90
44069;DHT22;29738;51.234;5.484;2024-03-02T16:01:17;13.60;69.90
44069;DHT22;29738;51.234;5.484;2024-03-02T16:03:46;13.50;67.80
44069;DHT22;29738;51.234;5.484;2024-03-02T16:06:12;13.50;67.90
44069;DHT22;29738;51.234;5.484;2024-03-02T16:08:38;13.70;70.70
44069;DHT22;29738;51.234;5.484;2024-03-02T16:11:03;13.70;68.30
44069;DHT22;29738;51.234;5.484;2024-03-02T16:13:29;13.50;68.80
44069;DHT22;29738;51.234;5.484;2024-03-02T16:15:56;13.50;66.10
44069;DHT22;29738;51.234;5.484;2024-03-02T16:18:22;13.40;65.70
44069;DHT22;29738;51.234;5.484;2024-03-02T16:20:50;13.50;64.30
44069;DHT22;29738;51.234;5.484;2024-03-02T16:23:16;13.50;56.60
44069;DHT22;29738;51.234;5.484;2024-03-02T16:25:48;13.50;51.20
44069;DHT22;29738;51.234;5.484;2024-03-02T16:28:16;13.70;49.70
44069;DHT22;29738;51.234;5.484;2024-03-02T16:30:41;13.50;49.50